createdAt,value
2019-04-21T00:03:56.655Z,14.10
2019-04-21T00:09:26.080Z,14.00
2019-04-21T00:14:18.384Z,13.90
2019-04-21T00:19:24.917Z,13.80
2019-04-21T00:24:41.421Z,13.70
2019-04-21T00:29:51.841Z,13.60
2019-04-21T00:34:50.414Z,13.50
2019-04-21T00:40:13.197Z,13.50
2019-04-21T00:45:11.967Z,13.30
2019-04-21T00:50:25.713Z,13.20
2019-04-21T01:00:49.780Z,13.00
2019-04-21T01:10:52.775Z,12.80
2019-04-21T01:16:06.886Z,12.80
2019-04-21T01:20:52.960Z,12.70
2019-04-21T01:26:12.203Z,12.60
2019-04-21T01:31:25.846Z,12.60
2019-04-21T01:36:33.338Z,12.60
2019-04-21T01:41:46.236Z,12.50
2019-04-21T01:46:45.727Z,12.40
2019-04-21T01:52:15.854Z,12.30
2019-04-21T01:57:17.763Z,12.30
2019-04-21T02:02:32.544Z,12.30
2019-04-21T02:07:39.249Z,12.10
2019-04-21T02:12:46.008Z,12.10
2019-04-21T02:17:57.482Z,12.00
2019-04-21T02:28:15.795Z,11.80
2019-04-21T02:38:39.330Z,11.60
2019-04-21T02:43:42.580Z,11.60
2019-04-21T02:48:55.463Z,11.50
2019-04-21T02:54:11.915Z,11.40
2019-04-21T02:59:17.097Z,11.30
2019-04-21T03:04:34.888Z,11.20
2019-04-21T03:09:39.179Z,11.20
2019-04-21T03:30:45.005Z,10.90
2019-04-21T03:40:18.613Z,10.80
2019-04-21T03:45:42.426Z,10.70
2019-04-21T03:55:53.197Z,10.60
2019-04-21T04:01:24.056Z,10.50
2019-04-21T04:27:20.888Z,10.30
2019-04-21T04:32:24.433Z,10.20
2019-04-21T04:37:32.947Z,10.30
2019-04-21T04:47:50.768Z,10.30
2019-04-21T05:03:05.456Z,10.50
2019-04-21T05:08:28.658Z,10.70
2019-04-21T05:13:26.155Z,10.80
2019-04-21T05:18:35.110Z,10.90
2019-04-21T05:23:25.682Z,11.10
2019-04-21T05:28:31.698Z,11.20
2019-04-21T05:33:54.254Z,11.40
2019-04-21T05:39:23.420Z,11.70
2019-04-21T05:44:43.106Z,11.90
2019-04-21T05:50:01.224Z,12.30
2019-04-21T05:55:11.000Z,12.70
2019-04-21T06:00:36.490Z,13.30
2019-04-21T06:05:35.045Z,15.80
2019-04-21T06:10:34.956Z,19.40
2019-04-21T06:15:44.614Z,22.60
2019-04-21T06:20:49.211Z,25.30
2019-04-21T06:31:19.753Z,29.50
2019-04-21T06:41:31.465Z,32.40
2019-04-21T06:46:35.205Z,33.60
2019-04-21T06:51:37.134Z,34.80
2019-04-21T06:56:51.572Z,35.70
2019-04-21T07:01:56.708Z,36.80
2019-04-21T07:06:59.366Z,37.40
2019-04-21T07:12:07.482Z,38.40
2019-04-21T07:17:24.695Z,39.10
2019-04-21T07:22:32.374Z,39.40
2019-04-21T07:27:35.248Z,40.50
2019-04-21T07:32:40.135Z,41.70
2019-04-21T07:37:48.110Z,42.10
2019-04-21T07:42:53.789Z,42.00
2019-04-21T07:48:00.942Z,42.20
2019-04-21T07:53:21.156Z,42.30
2019-04-21T07:58:33.078Z,43.00
2019-04-21T08:03:34.966Z,42.20
2019-04-21T08:08:42.369Z,42.10
2019-04-21T08:13:50.306Z,43.20
2019-04-21T08:18:53.518Z,44.20
2019-04-21T08:24:00.218Z,45.30
2019-04-21T08:29:21.493Z,46.30
2019-04-21T08:34:22.628Z,47.80
2019-04-21T08:39:28.887Z,49.20
2019-04-21T08:44:43.642Z,50.20
2019-04-21T08:49:41.560Z,50.10
2019-04-21T08:54:48.133Z,50.90
2019-04-21T09:00:21.881Z,51.70
2019-04-21T09:05:25.326Z,52.20
2019-04-21T09:10:35.367Z,52.10
2019-04-21T09:15:41.910Z,53.10
2019-04-21T09:20:52.214Z,53.80
2019-04-21T09:26:00.420Z,54.20
2019-04-21T09:30:52.183Z,55.20
2019-04-21T09:35:58.806Z,55.20
2019-04-21T09:40:59.778Z,54.20
2019-04-21T09:46:06.154Z,53.60
2019-04-21T09:51:12.968Z,53.10
2019-04-21T09:56:31.211Z,49.60
2019-04-21T10:01:36.820Z,44.60
2019-04-21T10:06:34.909Z,40.40
2019-04-21T10:11:41.685Z,37.00
2019-04-21T10:17:04.856Z,34.30
2019-04-21T10:22:10.710Z,32.10
2019-04-21T10:27:19.024Z,30.10
2019-04-21T10:32:25.414Z,28.50
2019-04-21T10:37:42.861Z,27.60
2019-04-21T10:42:40.407Z,26.80
2019-04-21T10:47:47.239Z,26.10
2019-04-21T10:53:06.919Z,25.70
2019-04-21T10:58:20.283Z,25.30
2019-04-21T11:03:40.388Z,24.90
2019-04-21T11:08:50.318Z,24.80
2019-04-21T11:13:54.727Z,24.60
2019-04-21T11:19:00.455Z,24.50
2019-04-21T11:24:06.071Z,24.40
2019-04-21T11:29:12.846Z,24.30
2019-04-21T11:34:18.775Z,24.20
2019-04-21T11:39:42.202Z,24.10
2019-04-21T11:44:39.735Z,24.10
2019-04-21T11:49:45.320Z,24.10
2019-04-21T11:54:50.959Z,24.00
2019-04-21T11:59:57.581Z,24.10
2019-04-21T12:05:03.599Z,24.10
2019-04-21T12:10:09.263Z,24.10
2019-04-21T12:15:14.696Z,24.20
2019-04-21T12:20:20.909Z,24.20
2019-04-21T12:25:29.753Z,24.30
2019-04-21T12:30:35.733Z,24.30
2019-04-21T12:35:41.852Z,24.40
2019-04-21T12:40:48.558Z,24.40
2019-04-21T12:45:54.205Z,24.50
2019-04-21T12:50:59.813Z,24.60
2019-04-21T12:56:05.540Z,24.70
2019-04-21T13:01:11.089Z,24.70
2019-04-21T13:06:16.512Z,24.80
2019-04-21T13:11:23.281Z,24.80
2019-04-21T13:16:29.487Z,24.80
2019-04-21T13:21:36.125Z,24.80
2019-04-21T13:26:47.239Z,24.90
2019-04-21T13:31:49.966Z,24.90
2019-04-21T13:36:55.440Z,24.90
2019-04-21T13:42:12.280Z,24.90
2019-04-21T13:47:10.350Z,25.00
2019-04-21T13:52:16.032Z,24.90
2019-04-21T13:57:22.696Z,24.90
2019-04-21T14:02:29.007Z,25.00
2019-04-21T14:07:34.486Z,25.10
2019-04-21T14:12:40.520Z,25.20
2019-04-21T14:17:46.763Z,25.20
2019-04-21T14:22:52.423Z,25.20
2019-04-21T14:27:58.064Z,25.20
2019-04-21T14:33:04.472Z,25.20
2019-04-21T14:38:10.831Z,25.30
2019-04-21T14:43:16.535Z,25.40
2019-04-21T14:48:41.186Z,25.40
2019-04-21T14:54:05.906Z,25.40
2019-04-21T14:59:12.905Z,25.40
2019-04-21T15:04:19.365Z,25.40
2019-04-21T15:09:25.565Z,25.40
2019-04-21T15:14:31.862Z,25.40
2019-04-21T15:19:38.365Z,25.30
2019-04-21T15:24:44.526Z,25.20
2019-04-21T15:29:51.061Z,25.20
2019-04-21T15:34:56.677Z,25.20
2019-04-21T15:40:17.180Z,25.10
2019-04-21T15:45:10.527Z,25.00
2019-04-21T15:50:18.141Z,25.00
2019-04-21T15:55:41.248Z,25.00
2019-04-21T16:00:54.454Z,25.00
2019-04-21T16:06:01.409Z,24.90
2019-04-21T16:11:09.235Z,24.90
2019-04-21T16:16:14.639Z,24.80
2019-04-21T16:21:20.157Z,24.70
2019-04-21T16:26:26.760Z,24.60
2019-04-21T16:31:32.315Z,24.50
2019-04-21T16:36:38.067Z,24.40
2019-04-21T16:41:44.608Z,24.30
2019-04-21T16:46:51.643Z,24.30
2019-04-21T16:52:16.121Z,24.30
2019-04-21T16:57:35.673Z,24.20
2019-04-21T17:02:46.279Z,24.10
2019-04-21T17:07:55.719Z,24.00
2019-04-21T17:13:04.304Z,23.90
2019-04-21T17:18:33.094Z,23.90
2019-04-21T17:23:25.392Z,23.80
2019-04-21T17:28:34.368Z,23.90
2019-04-21T17:33:43.471Z,23.70
2019-04-21T17:38:52.270Z,23.60
2019-04-21T17:44:00.380Z,23.40
2019-04-21T17:49:08.559Z,23.10
2019-04-21T17:54:34.245Z,22.90
2019-04-21T18:05:02.311Z,22.50
2019-04-21T18:10:15.978Z,22.30
2019-04-21T18:15:10.236Z,22.10
2019-04-21T18:20:01.820Z,22.00
2019-04-21T18:25:20.252Z,21.70
2019-04-21T18:30:46.590Z,21.60
2019-04-21T18:36:30.284Z,21.40
2019-04-21T18:41:34.498Z,21.20
2019-04-21T18:47:10.626Z,20.90
2019-04-21T18:52:06.819Z,20.70
2019-04-21T18:57:17.493Z,20.50
2019-04-21T19:02:17.501Z,20.40
2019-04-21T19:07:37.891Z,20.30
2019-04-21T19:13:09.164Z,20.10
2019-04-21T19:22:57.053Z,20.00
2019-04-21T19:28:12.131Z,19.90
2019-04-21T19:33:14.070Z,19.80
2019-04-21T19:38:10.105Z,19.60
2019-04-21T19:43:35.661Z,19.50
2019-04-21T19:48:45.021Z,19.30
2019-04-21T19:53:41.676Z,19.20
2019-04-21T19:58:39.114Z,19.10
2019-04-21T20:03:43.158Z,19.00
2019-04-21T20:09:09.619Z,19.00
2019-04-21T20:14:45.043Z,18.90
2019-04-21T20:19:08.513Z,18.80
2019-04-21T20:24:16.088Z,18.70
2019-04-21T20:29:38.970Z,18.50
2019-04-21T20:34:46.139Z,18.30
2019-04-21T20:39:42.852Z,18.10
2019-04-21T20:45:16.169Z,17.90
2019-04-21T20:50:03.357Z,17.70
2019-04-21T20:55:04.875Z,17.50
2019-04-21T21:00:19.287Z,17.20
2019-04-21T21:05:23.069Z,17.00
2019-04-21T21:10:34.713Z,16.80
2019-04-21T21:15:35.924Z,16.60
2019-04-21T21:20:49.692Z,16.50
2019-04-21T21:25:57.226Z,16.30
2019-04-21T21:31:04.289Z,16.10
2019-04-21T21:36:10.709Z,16.00
2019-04-21T21:41:13.280Z,15.80
2019-04-21T21:46:26.367Z,15.70
2019-04-21T21:51:21.388Z,15.60
2019-04-21T21:56:22.598Z,15.40
2019-04-21T22:01:35.778Z,15.30
2019-04-21T22:06:43.371Z,15.20
2019-04-21T22:11:44.260Z,15.10
2019-04-21T22:17:07.711Z,14.90
2019-04-21T22:22:13.984Z,14.80
2019-04-21T22:27:05.376Z,14.80
2019-04-21T22:32:17.363Z,14.70
2019-04-21T22:37:36.765Z,14.60
2019-04-21T22:42:30.579Z,14.70
2019-04-21T22:47:35.788Z,14.80
2019-04-21T22:52:39.697Z,14.90
2019-04-21T22:57:49.850Z,14.90
2019-04-21T23:02:56.117Z,15.00
2019-04-21T23:08:03.746Z,15.00
2019-04-21T23:13:13.366Z,15.10
2019-04-21T23:18:30.722Z,15.10
2019-04-21T23:23:44.219Z,15.20
2019-04-21T23:28:50.779Z,15.20
2019-04-21T23:33:37.015Z,15.40
2019-04-21T23:38:47.265Z,15.30
2019-04-21T23:43:53.102Z,15.40
2019-04-21T23:49:12.454Z,15.40
2019-04-21T23:54:05.073Z,15.50
2019-04-21T23:59:14.277Z,15.40
